Time;durP1;ratioP1;P1;durP2;ratioP2;P2;SDS_P1;SDS_P2;PMS_P1;PMS_P2;Temp;Humidity;BMP_temperature;BMP_pressure;BME280_temperature;BME280_humidity;BME280_pressure;Samples;Min_cycle;Max_cycle;Signal;HPM_P1;HPM_P2
2023/02/20 00:00:51;;;;;;;3.97;3.58;;;7.00;99.90;;;;;;5013291;28;20326;-74
2023/02/20 00:03:18;;;;;;;7.60;3.40;;;7.00;99.90;;;;;;5009348;28;20192;-73
2023/02/20 00:05:47;;;;;;;8.75;2.92;;;7.00;99.90;;;;;;5018386;28;20250;-74
2023/02/20 00:08:14;;;;;;;10.10;3.40;;;7.00;99.90;;;;;;5019924;28;20286;-73
2023/02/20 00:10:41;;;;;;;4.05;2.97;;;7.10;99.90;;;;;;5023247;28;20206;-74
2023/02/20 00:13:08;;;;;;;2.67;2.35;;;7.00;99.90;;;;;;5016135;28;20223;-74
2023/02/20 00:15:34;;;;;;;3.95;2.92;;;7.00;99.90;;;;;;5010729;28;20228;-72
2023/02/20 00:18:02;;;;;;;4.40;2.85;;;7.00;99.90;;;;;;5012146;28;20207;-74
2023/02/20 00:20:30;;;;;;;5.43;3.20;;;7.00;99.90;;;;;;5012192;28;20205;-74
2023/02/20 00:22:59;;;;;;;4.47;2.63;;;7.00;99.90;;;;;;5011944;28;20224;-72
2023/02/20 00:25:26;;;;;;;4.38;2.40;;;7.00;99.90;;;;;;5011918;28;20773;-73
2023/02/20 00:27:53;;;;;;;5.55;3.47;;;7.00;99.90;;;;;;5012847;28;20247;-73
2023/02/20 00:30:21;;;;;;;4.60;3.08;;;7.00;99.90;;;;;;5014224;28;20313;-74
2023/02/20 00:32:51;;;;;;;6.00;3.67;;;7.00;99.90;;;;;;5011772;28;20197;-74
2023/02/20 00:35:18;;;;;;;4.50;3.20;;;7.00;99.90;;;;;;5012804;28;20228;-75
2023/02/20 00:37:46;;;;;;;5.78;3.85;;;7.00;99.90;;;;;;5011296;28;20232;-74
2023/02/20 00:40:18;;;;;;;6.10;3.90;;;7.00;99.90;;;;;;5011325;28;20753;-73
2023/02/20 00:42:45;;;;;;;8.27;3.40;;;7.00;99.90;;;;;;5014654;28;20242;-75
2023/02/20 00:45:15;;;;;;;6.50;3.40;;;7.00;99.90;;;;;;5012232;28;20746;-73
2023/02/20 00:47:42;;;;;;;4.32;3.75;;;7.10;99.90;;;;;;5014294;28;20255;-73
2023/02/20 00:50:10;;;;;;;6.45;3.65;;;7.10;99.90;;;;;;5015313;28;20236;-75
2023/02/20 00:52:38;;;;;;;6.05;3.65;;;7.10;99.90;;;;;;5019587;28;20569;-74
2023/02/20 00:55:06;;;;;;;5.20;3.58;;;7.10;99.90;;;;;;5018206;28;20223;-73
2023/02/20 00:57:34;;;;;;;11.82;3.83;;;7.00;99.90;;;;;;5015947;28;20208;-74
2023/02/20 01:00:01;;;;;;;7.05;4.55;;;7.10;99.90;;;;;;5016202;28;20695;-74
2023/02/20 01:02:28;;;;;;;4.80;4.35;;;7.10;99.90;;;;;;5015185;28;20310;-74
2023/02/20 01:04:55;;;;;;;6.82;5.00;;;7.10;99.90;;;;;;5016598;28;20700;-73
2023/02/20 01:07:22;;;;;;;9.82;5.55;;;7.10;99.90;;;;;;5013282;28;20204;-73
2023/02/20 01:09:49;;;;;;;7.03;3.95;;;7.10;99.90;;;;;;5023960;28;20203;-74
2023/02/20 01:12:17;;;;;;;5.10;4.30;;;7.10;99.90;;;;;;5014121;28;20212;-72
2023/02/20 01:14:45;;;;;;;6.57;4.72;;;7.10;99.90;;;;;;5016454;28;20227;-73
2023/02/20 01:17:13;;;;;;;6.45;4.82;;;7.10;99.90;;;;;;5015710;28;20220;-73
2023/02/20 01:19:41;;;;;;;7.93;4.47;;;7.10;99.90;;;;;;5025460;28;20211;-74
2023/02/20 01:22:08;;;;;;;6.00;4.18;;;7.10;99.90;;;;;;5017473;28;20259;-73
2023/02/20 01:24:36;;;;;;;5.70;4.13;;;7.20;99.90;;;;;;5026055;28;20318;-73
2023/02/20 01:27:04;;;;;;;4.70;3.97;;;7.10;99.90;;;;;;5020217;28;20258;-74
2023/02/20 01:29:31;;;;;;;6.57;4.47;;;7.10;99.90;;;;;;5024479;28;20220;-73
2023/02/20 01:31:59;;;;;;;7.95;4.30;;;7.10;99.90;;;;;;5027768;28;20266;-74
2023/02/20 01:34:28;;;;;;;8.38;5.07;;;7.10;99.90;;;;;;5025319;28;20223;-75
2023/02/20 01:36:55;;;;;;;9.13;4.85;;;7.20;99.90;;;;;;5019014;28;20267;-74
2023/02/20 01:39:29;;;;;;;8.20;5.03;;;7.20;99.90;;;;;;5019912;28;20205;-73
2023/02/20 01:42:01;;;;;;;8.35;4.22;;;7.20;99.90;;;;;;5015445;28;20224;-76
2023/02/20 01:44:29;;;;;;;7.80;5.13;;;7.20;99.90;;;;;;5014995;28;20298;-74
2023/02/20 01:46:59;;;;;;;11.20;5.35;;;7.20;99.90;;;;;;5010506;28;20635;-74
2023/02/20 01:49:31;;;;;;;7.75;4.63;;;7.20;99.90;;;;;;5016528;28;20212;-73
2023/02/20 01:52:05;;;;;;;6.43;5.43;;;7.20;99.90;;;;;;5014469;28;20230;-75
2023/02/20 01:54:33;;;;;;;7.55;5.45;;;7.20;99.90;;;;;;5014959;28;20282;-74
2023/02/20 01:57:02;;;;;;;8.40;5.03;;;7.30;99.90;;;;;;5014284;28;20201;-74
2023/02/20 01:59:33;;;;;;;10.27;5.18;;;7.30;99.90;;;;;;5012885;28;20211;-72
2023/02/20 02:02:01;;;;;;;6.55;5.45;;;7.40;99.90;;;;;;5015442;28;20567;-74
2023/02/20 02:04:29;;;;;;;7.10;4.90;;;7.40;99.90;;;;;;5013287;28;20307;-73
2023/02/20 02:07:00;;;;;;;9.95;5.68;;;7.40;99.90;;;;;;5015329;28;20287;-75
2023/02/20 02:09:38;;;;;;;8.55;5.88;;;7.40;99.90;;;;;;5015416;28;20237;-73
2023/02/20 02:12:05;;;;;;;8.52;6.22;;;7.40;99.90;;;;;;5015591;28;20207;-74
2023/02/20 02:14:32;;;;;;;6.57;5.25;;;7.50;99.90;;;;;;5013685;28;20258;-71
2023/02/20 02:17:18;;;;;;;7.20;6.03;;;7.50;99.90;;;;;;5017909;28;20622;-75
2023/02/20 02:20:16;;;;;;;8.57;5.80;;;7.50;99.90;;;;;;5004708;28;20240;-73
2023/02/20 02:23:13;;;;;;;10.23;5.97;;;7.50;99.90;;;;;;5016714;28;20227;-73
2023/02/20 02:25:54;;;;;;;8.07;5.32;;;7.60;99.90;;;;;;5002979;28;20230;-74
2023/02/20 02:28:57;;;;;;;10.43;5.78;;;7.60;99.90;;;;;;5013853;28;20310;-74
2023/02/20 02:31:58;;;;;;;12.85;5.25;;;7.60;99.90;;;;;;5009596;28;20555;-73
2023/02/20 02:35:00;;;;;;;6.40;5.18;;;7.60;99.90;;;;;;4992384;28;20644;-74
2023/02/20 02:37:34;;;;;;;8.15;5.40;;;7.60;99.90;;;;;;5018059;28;20618;-75
2023/02/20 02:40:04;;;;;;;6.75;5.70;;;7.70;99.90;;;;;;5013450;28;20285;-73
2023/02/20 02:42:43;;;;;;;7.28;4.90;;;7.70;99.90;;;;;;5024167;28;20292;-75
2023/02/20 02:45:17;;;;;;;7.00;5.97;;;7.70;99.90;;;;;;5010574;28;20232;-74
2023/02/20 02:47:49;;;;;;;7.22;5.82;;;7.70;99.90;;;;;;5015153;28;20203;-73
2023/02/20 02:50:23;;;;;;;6.72;5.18;;;7.70;99.90;;;;;;5014131;28;20244;-74
2023/02/20 02:52:52;;;;;;;7.45;5.70;;;7.70;99.90;;;;;;5014264;28;20289;-72
2023/02/20 02:55:23;;;;;;;9.27;7.00;;;7.70;99.90;;;;;;5011911;28;20228;-73
2023/02/20 02:57:51;;;;;;;7.57;6.78;;;7.70;99.90;;;;;;5014369;28;20284;-73
2023/02/20 03:00:24;;;;;;;6.70;5.95;;;7.70;99.90;;;;;;5016460;28;20205;-73
2023/02/20 03:02:57;;;;;;;9.30;6.97;;;7.70;99.90;;;;;;5012007;28;20257;-74
2023/02/20 03:05:39;;;;;;;8.52;6.78;;;7.70;99.90;;;;;;5018742;28;20232;-73
2023/02/20 03:08:13;;;;;;;10.00;6.63;;;7.60;99.90;;;;;;5019971;28;20599;-72
2023/02/20 03:10:41;;;;;;;13.55;6.72;;;7.60;99.90;;;;;;5013778;28;20211;-73
2023/02/20 03:13:11;;;;;;;7.97;6.85;;;7.60;99.90;;;;;;5014281;28;20782;-73
2023/02/20 03:15:41;;;;;;;10.60;7.18;;;7.70;99.90;;;;;;5019004;28;20234;-73
2023/02/20 03:18:23;;;;;;;12.13;7.55;;;7.70;99.90;;;;;;5014980;28;20204;-73
2023/02/20 03:20:55;;;;;;;9.77;7.13;;;7.70;99.90;;;;;;5011946;28;20211;-73
2023/02/20 03:23:26;;;;;;;11.45;7.40;;;7.70;99.90;;;;;;5011156;28;20233;-73
2023/02/20 03:25:56;;;;;;;8.80;6.70;;;7.70;99.90;;;;;;5013157;28;20220;-74
2023/02/20 03:28:26;;;;;;;11.02;8.27;;;7.70;99.90;;;;;;5012031;28;20219;-73
2023/02/20 03:30:58;;;;;;;9.85;7.13;;;7.70;99.90;;;;;;5013978;28;20239;-73
2023/02/20 03:44:44;;;;;;;12.85;8.60;;;7.80;99.90;;;;;;5013424;28;20232;-72
2023/02/20 03:47:15;;;;;;;11.32;8.32;;;7.70;99.90;;;;;;5013364;28;20205;-74
2023/02/20 03:49:44;;;;;;;14.57;9.55;;;7.70;99.90;;;;;;5013343;28;20241;-73
2023/02/20 03:52:12;;;;;;;13.20;8.00;;;7.70;99.90;;;;;;5012058;28;20255;-74
2023/02/20 03:54:41;;;;;;;11.35;9.38;;;7.70;99.90;;;;;;5013223;28;20312;-73
2023/02/20 03:57:13;;;;;;;13.98;8.48;;;7.70;99.90;;;;;;5013127;28;20214;-73
2023/02/20 03:59:44;;;;;;;14.98;9.02;;;7.90;99.90;;;;;;5013202;28;20277;-73
2023/02/20 04:02:19;;;;;;;15.30;9.35;;;7.70;99.90;;;;;;5015241;28;20208;-72
2023/02/20 04:04:49;;;;;;;13.32;10.48;;;7.80;99.90;;;;;;5020749;28;20220;-73
2023/02/20 04:07:21;;;;;;;15.23;9.45;;;7.70;99.90;;;;;;5028985;28;20200;-72
2023/02/20 04:10:02;;;;;;;11.73;9.32;;;7.80;99.90;;;;;;5030644;28;20260;-72
2023/02/20 04:12:34;;;;;;;15.45;10.00;;;7.70;99.90;;;;;;5026391;28;20192;-73
2023/02/20 04:15:02;;;;;;;12.05;8.55;;;7.70;99.90;;;;;;5021458;28;20271;-73
2023/02/20 04:17:35;;;;;;;15.52;9.23;;;7.70;99.90;;;;;;5015010;28;20698;-73
2023/02/20 04:20:03;;;;;;;13.68;9.75;;;7.80;99.90;;;;;;5017943;28;20707;-73
2023/02/20 04:22:36;;;;;;;14.25;9.55;;;7.80;99.90;;;;;;5012023;28;20225;-74
2023/02/20 04:25:13;;;;;;;11.88;8.18;;;7.80;99.90;;;;;;5012310;28;20235;-72
2023/02/20 04:27:40;;;;;;;15.00;9.05;;;7.80;99.90;;;;;;5011468;28;20212;-74
2023/02/20 04:30:09;;;;;;;12.32;9.10;;;7.80;99.90;;;;;;5011980;28;20232;-72
2023/02/20 04:32:36;;;;;;;13.02;8.85;;;7.80;99.90;;;;;;5013039;28;20287;-74
2023/02/20 04:35:03;;;;;;;15.35;10.27;;;7.80;99.90;;;;;;5011474;28;20291;-74
2023/02/20 04:37:30;;;;;;;15.55;10.40;;;7.80;99.90;;;;;;5012856;28;20228;-74
2023/02/20 04:39:58;;;;;;;17.42;9.45;;;7.80;99.90;;;;;;5011945;28;20663;-73
2023/02/20 04:42:26;;;;;;;15.43;9.40;;;7.80;99.90;;;;;;5012583;28;20296;-73
2023/02/20 04:44:53;;;;;;;14.52;9.45;;;7.90;99.90;;;;;;5012679;28;20263;-73
2023/02/20 04:47:21;;;;;;;19.58;9.40;;;7.90;99.90;;;;;;5012462;28;20323;-73
2023/02/20 04:49:51;;;;;;;14.32;10.57;;;7.90;99.90;;;;;;5012157;28;20578;-74
2023/02/20 04:52:18;;;;;;;15.95;10.07;;;8.00;99.90;;;;;;5012106;28;20236;-74
2023/02/20 04:54:45;;;;;;;14.45;10.30;;;7.90;99.90;;;;;;5012381;28;20717;-73
2023/02/20 04:57:12;;;;;;;13.05;11.05;;;7.90;99.90;;;;;;5012379;28;20669;-73
2023/02/20 04:59:40;;;;;;;12.82;10.68;;;7.90;99.90;;;;;;5012029;28;20304;-74
2023/02/20 05:02:07;;;;;;;24.13;9.63;;;7.90;99.90;;;;;;5012793;28;20300;-73
2023/02/20 05:04:36;;;;;;;15.52;11.02;;;8.00;99.90;;;;;;5012030;28;20225;-73
2023/02/20 05:07:03;;;;;;;14.40;10.80;;;7.90;99.90;;;;;;5012679;28;20201;-74
2023/02/20 05:09:30;;;;;;;16.02;11.18;;;7.90;99.90;;;;;;5010401;28;20295;-74
2023/02/20 05:11:57;;;;;;;14.70;10.35;;;7.90;99.90;;;;;;5012657;28;20196;-73
2023/02/20 05:14:24;;;;;;;18.13;12.02;;;8.00;99.90;;;;;;5012477;28;20225;-74
2023/02/20 05:16:53;;;;;;;12.93;10.00;;;7.90;99.90;;;;;;5014339;28;20267;-74
2023/02/20 05:19:20;;;;;;;14.45;11.77;;;7.90;99.90;;;;;;5012527;28;20235;-73
2023/02/20 05:24:32;;;;;;;17.20;11.88;;;7.90;99.90;;;;;;5012771;28;20749;-73
2023/02/20 05:26:59;;;;;;;17.27;13.05;;;7.80;99.90;;;;;;5012972;28;20208;-73
2023/02/20 05:29:27;;;;;;;21.27;14.07;;;7.90;99.90;;;;;;5012745;28;20695;-73
2023/02/20 05:31:56;;;;;;;21.83;14.25;;;7.90;99.90;;;;;;5020279;28;20755;-72
2023/02/20 05:34:24;;;;;;;20.25;13.02;;;7.80;99.90;;;;;;5020660;28;20263;-73
2023/02/20 05:36:51;;;;;;;17.95;12.35;;;7.80;99.90;;;;;;5015045;28;20350;-74
2023/02/20 05:39:20;;;;;;;18.02;12.60;;;7.80;99.90;;;;;;5015881;28;20208;-72
2023/02/20 05:41:48;;;;;;;18.17;12.95;;;7.80;99.90;;;;;;5014629;28;20207;-72
2023/02/20 05:44:16;;;;;;;20.20;14.05;;;7.80;99.90;;;;;;5014355;28;20647;-73
2023/02/20 05:46:43;;;;;;;20.20;14.52;;;7.80;99.90;;;;;;5015575;28;20292;-73
2023/02/20 05:49:12;;;;;;;23.13;13.77;;;7.80;99.90;;;;;;5013361;28;20209;-73
2023/02/20 05:51:39;;;;;;;16.52;13.02;;;7.80;99.90;;;;;;5017414;28;20239;-73
2023/02/20 05:54:06;;;;;;;21.25;15.07;;;7.70;99.90;;;;;;5010377;28;20710;-73
2023/02/20 05:56:33;;;;;;;25.05;15.00;;;7.70;99.90;;;;;;5005713;28;20611;-72
2023/02/20 05:59:00;;;;;;;21.88;14.65;;;7.80;99.90;;;;;;5015373;28;20615;-74
2023/02/20 06:01:29;;;;;;;23.20;16.13;;;7.70;99.90;;;;;;5014223;28;20208;-74
2023/02/20 06:03:57;;;;;;;23.70;15.20;;;7.70;99.90;;;;;;5013977;28;20259;-73
2023/02/20 06:06:31;;;;;;;26.63;15.38;;;7.70;99.90;;;;;;5013498;28;20651;-73
2023/02/20 06:08:58;;;;;;;20.80;15.43;;;7.60;99.90;;;;;;5015250;28;20533;-74
2023/02/20 06:11:25;;;;;;;22.60;15.57;;;7.60;99.90;;;;;;5014353;28;20589;-73
2023/02/20 06:13:52;;;;;;;20.60;15.90;;;7.60;99.90;;;;;;5015170;28;20201;-72
2023/02/20 06:16:23;;;;;;;22.20;18.10;;;7.60;99.90;;;;;;5017295;28;20717;-73
2023/02/20 06:18:50;;;;;;;22.08;17.67;;;7.60;99.90;;;;;;5015494;28;20212;-71
2023/02/20 06:21:17;;;;;;;25.38;16.85;;;7.70;99.90;;;;;;5014327;28;20219;-72
2023/02/20 06:23:46;;;;;;;26.08;18.40;;;7.70;99.90;;;;;;5012847;28;20314;-73
2023/02/20 06:26:14;;;;;;;27.77;17.92;;;7.70;99.90;;;;;;5015667;28;20283;-72
2023/02/20 06:28:49;;;;;;;26.98;19.05;;;7.70;99.90;;;;;;5013965;28;20205;-73
2023/02/20 06:31:22;;;;;;;26.88;20.15;;;7.80;99.90;;;;;;5015383;28;20204;-73
2023/02/20 06:33:49;;;;;;;24.35;20.33;;;7.80;99.90;;;;;;5010333;28;20612;-74
2023/02/20 06:36:22;;;;;;;24.17;18.60;;;7.80;99.90;;;;;;5015167;28;20204;-73
2023/02/20 06:38:52;;;;;;;26.52;19.90;;;7.80;99.90;;;;;;5016017;28;20231;-73
2023/02/20 06:41:19;;;;;;;30.67;20.05;;;7.80;99.90;;;;;;5016608;28;20240;-73
2023/02/20 06:43:46;;;;;;;28.08;18.15;;;7.90;99.90;;;;;;5024434;28;20308;-74
2023/02/20 06:46:13;;;;;;;27.38;19.90;;;7.90;99.90;;;;;;5031577;28;20650;-76
2023/02/20 06:48:45;;;;;;;32.97;21.05;;;8.00;99.90;;;;;;5031340;28;20211;-74
2023/02/20 06:51:12;;;;;;;26.10;19.50;;;7.90;99.90;;;;;;5018860;28;20201;-75
2023/02/20 06:53:41;;;;;;;27.25;20.52;;;7.90;99.90;;;;;;5012158;28;20723;-73
2023/02/20 06:56:17;;;;;;;27.50;19.77;;;7.90;99.90;;;;;;5010091;28;20367;-74
2023/02/20 06:58:45;;;;;;;25.33;18.75;;;7.90;99.90;;;;;;5009623;28;20211;-75
2023/02/20 07:01:12;;;;;;;29.95;19.25;;;7.90;99.90;;;;;;5013599;28;20263;-74
2023/02/20 07:03:39;;;;;;;30.08;20.42;;;7.90;99.90;;;;;;5012947;28;20225;-73
2023/02/20 07:06:07;;;;;;;30.80;21.30;;;7.90;99.90;;;;;;5011729;28;20240;-74
2023/02/20 07:08:34;;;;;;;32.30;19.45;;;7.90;99.90;;;;;;5014208;28;20308;-74
2023/02/20 07:11:01;;;;;;;30.52;20.50;;;7.90;99.90;;;;;;5007935;28;20201;-72
2023/02/20 07:13:30;;;;;;;34.20;22.77;;;7.90;99.90;;;;;;5013327;28;20197;-73
2023/02/20 07:15:57;;;;;;;35.60;20.85;;;7.90;99.90;;;;;;5013377;28;20589;-74
2023/02/20 07:18:26;;;;;;;34.83;19.90;;;8.00;99.90;;;;;;5014699;28;20235;-75
2023/02/20 07:20:54;;;;;;;31.13;20.40;;;7.90;99.90;;;;;;5016460;28;20216;-74
2023/02/20 07:23:21;;;;;;;28.92;20.58;;;8.00;99.90;;;;;;5015178;28;20252;-75
2023/02/20 07:25:49;;;;;;;31.83;21.42;;;8.00;99.90;;;;;;5013202;28;20228;-73
2023/02/20 07:28:17;;;;;;;30.05;23.60;;;8.10;99.90;;;;;;5011710;28;20297;-74
2023/02/20 07:30:47;;;;;;;29.95;21.58;;;8.10;99.90;;;;;;5005182;28;20284;-73
2023/02/20 07:33:15;;;;;;;34.35;23.00;;;8.10;99.90;;;;;;5013092;28;20201;-74
2023/02/20 07:35:43;;;;;;;36.00;21.42;;;8.10;99.90;;;;;;5013401;28;20220;-74
2023/02/20 07:38:10;;;;;;;32.25;22.38;;;8.10;99.90;;;;;;5013230;28;20672;-74
2023/02/20 07:40:37;;;;;;;31.60;20.90;;;8.10;99.90;;;;;;5012410;28;20572;-74
2023/02/20 07:43:04;;;;;;;32.03;22.77;;;8.10;99.90;;;;;;5013297;28;20621;-74
2023/02/20 07:45:34;;;;;;;40.55;23.85;;;8.10;99.90;;;;;;5012894;28;20224;-74
2023/02/20 07:48:03;;;;;;;38.08;22.40;;;8.10;99.90;;;;;;5008017;28;20575;-74
2023/02/20 07:50:29;;;;;;;33.88;22.38;;;8.20;99.90;;;;;;5012791;28;20615;-74
2023/02/20 07:52:56;;;;;;;30.58;22.52;;;8.20;99.90;;;;;;5013217;28;20230;-75
2023/02/20 07:55:23;;;;;;;32.67;23.35;;;8.30;99.90;;;;;;5013259;28;20726;-74
2023/02/20 07:57:53;;;;;;;35.13;23.80;;;8.30;99.90;;;;;;5013915;28;20201;-75
2023/02/20 08:00:20;;;;;;;35.83;21.90;;;8.30;99.90;;;;;;5012588;28;20231;-73
2023/02/20 08:02:48;;;;;;;28.73;21.42;;;8.30;99.90;;;;;;5014536;28;20229;-75
2023/02/20 08:05:16;;;;;;;38.67;25.27;;;8.30;99.90;;;;;;5013140;28;20726;-73
2023/02/20 08:07:45;;;;;;;42.60;23.05;;;8.40;99.90;;;;;;5013106;28;20651;-74
2023/02/20 08:10:13;;;;;;;42.97;22.27;;;8.30;99.90;;;;;;5012614;28;20850;-73
2023/02/20 08:12:40;;;;;;;37.20;25.30;;;8.40;99.90;;;;;;5013303;28;20196;-73
2023/02/20 08:15:10;;;;;;;36.22;24.50;;;8.40;99.90;;;;;;5016755;28;20251;-74
2023/02/20 08:17:39;;;;;;;40.85;24.58;;;8.50;99.90;;;;;;5013108;28;20228;-75
2023/02/20 08:20:07;;;;;;;27.77;20.65;;;8.50;99.90;;;;;;5011573;28;20620;-73
2023/02/20 08:22:36;;;;;;;40.65;23.08;;;8.50;99.90;;;;;;5013150;28;20233;-73
2023/02/20 08:25:03;;;;;;;39.58;24.65;;;8.50;99.90;;;;;;5012112;28;20755;-72
2023/02/20 08:27:31;;;;;;;35.47;21.60;;;8.60;99.90;;;;;;5012301;28;20730;-73
2023/02/20 08:29:58;;;;;;;42.67;23.17;;;8.60;99.90;;;;;;5012412;28;20247;-73
2023/02/20 08:32:25;;;;;;;45.92;23.70;;;8.60;99.90;;;;;;5012112;28;20240;-74
2023/02/20 08:34:52;;;;;;;68.03;27.60;;;8.60;99.90;;;;;;5020209;28;20232;-73
2023/02/20 08:37:19;;;;;;;55.53;28.60;;;8.70;99.90;;;;;;5003967;28;20205;-73
2023/02/20 08:39:54;;;;;;;124.32;37.40;;;8.70;99.90;;;;;;5011873;28;20275;-75
2023/02/20 08:42:21;;;;;;;56.28;26.30;;;8.70;99.90;;;;;;5006112;28;20219;-73
2023/02/20 08:44:48;;;;;;;43.58;24.85;;;8.70;99.90;;;;;;5012062;28;20268;-74
2023/02/20 08:47:18;;;;;;;53.70;26.55;;;8.70;99.90;;;;;;5012647;28;20208;-75
2023/02/20 08:49:47;;;;;;;46.47;25.30;;;8.70;99.90;;;;;;5012015;28;20654;-73
2023/02/20 08:52:14;;;;;;;35.80;22.75;;;8.80;99.90;;;;;;5012037;28;20227;-73
2023/02/20 08:54:44;;;;;;;47.33;25.30;;;8.80;99.90;;;;;;5011948;28;20254;-74
2023/02/20 08:57:12;;;;;;;44.22;23.42;;;8.80;99.90;;;;;;5012067;28;20255;-72
2023/02/20 08:59:39;;;;;;;35.45;22.52;;;8.80;99.90;;;;;;5005627;28;20197;-74
2023/02/20 09:02:08;;;;;;;35.85;23.90;;;8.80;99.90;;;;;;5011447;28;20211;-74
2023/02/20 09:04:35;;;;;;;43.40;24.90;;;8.80;99.90;;;;;;5010431;28;20311;-74
2023/02/20 09:07:02;;;;;;;50.08;27.08;;;8.80;99.90;;;;;;5014491;28;20228;-74
2023/02/20 09:09:29;;;;;;;94.65;32.13;;;8.90;99.90;;;;;;5015400;28;20291;-73
2023/02/20 09:11:56;;;;;;;44.60;25.08;;;8.90;99.90;;;;;;5027967;28;20607;-72
2023/02/20 09:14:25;;;;;;;54.45;25.80;;;8.90;99.90;;;;;;5018104;28;20240;-74
2023/02/20 09:16:52;;;;;;;68.93;27.48;;;8.90;99.90;;;;;;5011836;28;20280;-75
2023/02/20 09:19:20;;;;;;;32.63;22.80;;;8.90;99.90;;;;;;5016274;28;20204;-74
2023/02/20 09:21:47;;;;;;;47.05;24.90;;;8.90;99.90;;;;;;5014510;28;20201;-73
2023/02/20 09:24:14;;;;;;;33.92;21.58;;;9.00;99.90;;;;;;5014598;28;20229;-73
2023/02/20 09:26:41;;;;;;;36.53;21.40;;;9.00;99.90;;;;;;5014503;28;20216;-73
2023/02/20 09:29:08;;;;;;;42.58;24.20;;;9.00;99.90;;;;;;5015566;28;20204;-73
2023/02/20 09:31:36;;;;;;;35.38;25.13;;;9.10;99.90;;;;;;5014444;28;20292;-73
2023/02/20 09:34:04;;;;;;;39.05;25.52;;;9.10;99.90;;;;;;5018656;28;20205;-72
2023/02/20 09:36:31;;;;;;;35.35;23.15;;;9.00;99.90;;;;;;5015110;28;20539;-73
2023/02/20 09:38:58;;;;;;;39.13;23.17;;;9.10;99.90;;;;;;5014806;28;20205;-73
2023/02/20 09:41:42;;;;;;;35.72;25.50;;;9.00;99.90;;;;;;5014139;28;20686;-72
2023/02/20 09:44:18;;;;;;;37.15;23.80;;;9.10;99.90;;;;;;5010750;28;20597;-73
2023/02/20 09:46:48;;;;;;;33.85;22.85;;;9.10;99.90;;;;;;5013949;28;20203;-73
2023/02/20 09:49:18;;;;;;;41.42;24.38;;;9.10;99.90;;;;;;5018218;28;20209;-73
2023/02/20 09:51:52;;;;;;;37.97;24.15;;;9.20;99.90;;;;;;5014540;28;20197;-73
2023/02/20 09:54:26;;;;;;;34.92;22.23;;;9.20;99.90;;;;;;5014952;28;20594;-72
2023/02/20 09:56:57;;;;;;;32.33;21.30;;;9.20;99.90;;;;;;5013660;28;20312;-73
2023/02/20 09:59:28;;;;;;;37.95;21.58;;;9.20;99.90;;;;;;5014854;28;20284;-72
2023/02/20 10:02:01;;;;;;;33.45;20.08;;;9.30;99.90;;;;;;5014214;28;20632;-72
2023/02/20 10:04:33;;;;;;;41.05;23.23;;;9.40;99.90;;;;;;5012802;28;20310;-73
2023/02/20 10:07:08;;;;;;;45.72;18.83;;;9.30;99.90;;;;;;5014482;28;20206;-72
2023/02/20 10:09:35;;;;;;;27.70;17.98;;;9.30;99.90;;;;;;5011902;28;20291;-73
2023/02/20 10:12:13;;;;;;;29.67;18.15;;;9.40;99.90;;;;;;5014885;28;20273;-74
2023/02/20 10:14:55;;;;;;;30.90;19.33;;;9.50;99.90;;;;;;5014166;28;20300;-72
2023/02/20 10:17:34;;;;;;;35.58;20.70;;;9.50;99.90;;;;;;5015836;28;20240;-73
2023/02/20 10:20:09;;;;;;;26.90;17.17;;;9.60;99.90;;;;;;5006815;28;20207;-73
2023/02/20 10:22:45;;;;;;;37.55;20.20;;;9.60;99.90;;;;;;5021694;28;20583;-73
2023/02/20 10:25:20;;;;;;;32.17;17.50;;;9.60;99.90;;;;;;5008704;28;20308;-72
2023/02/20 10:27:54;;;;;;;28.33;18.52;;;9.60;99.90;;;;;;5014072;28;20276;-73
2023/02/20 10:30:27;;;;;;;31.55;17.60;;;9.70;99.90;;;;;;5014303;28;20208;-72
2023/02/20 10:33:01;;;;;;;24.02;17.10;;;9.60;99.90;;;;;;5015630;28;20228;-73
2023/02/20 10:35:36;;;;;;;27.13;16.33;;;9.70;99.90;;;;;;5014351;28;20227;-73
2023/02/20 10:38:08;;;;;;;25.10;15.23;;;9.70;99.90;;;;;;5013814;28;20204;-74
2023/02/20 10:40:40;;;;;;;26.55;16.80;;;9.70;99.90;;;;;;5001788;28;20287;-73
2023/02/20 10:43:16;;;;;;;36.75;17.42;;;9.80;99.90;;;;;;5017697;28;20225;-74
2023/02/20 10:45:51;;;;;;;30.95;18.30;;;9.70;99.90;;;;;;5005603;28;20267;-73
2023/02/20 10:48:19;;;;;;;29.75;15.57;;;9.80;99.90;;;;;;5002919;28;20219;-73
2023/02/20 10:50:51;;;;;;;24.02;14.88;;;9.80;99.90;;;;;;5013924;28;20200;-72
2023/02/20 10:53:33;;;;;;;16.52;14.50;;;9.70;99.90;;;;;;5013875;28;20202;-74
2023/02/20 10:56:07;;;;;;;27.27;17.42;;;9.70;99.90;;;;;;5006887;28;20221;-72
2023/02/20 10:58:38;;;;;;;20.63;16.27;;;9.70;99.90;;;;;;5012063;28;20206;-74
2023/02/20 11:01:09;;;;;;;25.95;17.65;;;9.80;99.90;;;;;;5012495;28;20198;-73
2023/02/20 11:03:45;;;;;;;18.70;12.52;;;9.80;99.90;;;;;;5013447;28;20307;-72
2023/02/20 11:06:16;;;;;;;24.25;12.52;;;9.80;99.90;;;;;;5013120;28;20205;-74
2023/02/20 11:08:43;;;;;;;22.92;12.68;;;9.80;99.90;;;;;;5007299;28;20265;-72
2023/02/20 11:11:23;;;;;;;23.67;12.63;;;9.90;99.90;;;;;;5012218;28;20335;-73
2023/02/20 11:13:51;;;;;;;20.00;12.35;;;9.90;99.90;;;;;;5013186;28;20718;-72
2023/02/20 11:16:25;;;;;;;24.35;12.55;;;9.90;99.90;;;;;;5014920;28;20204;-73
2023/02/20 11:19:06;;;;;;;18.23;12.10;;;9.80;99.90;;;;;;5013537;28;20229;-74
2023/02/20 11:21:41;;;;;;;20.27;12.32;;;9.80;99.90;;;;;;5012439;28;20228;-73
2023/02/20 11:24:32;;;;;;;17.63;12.25;;;9.80;99.90;;;;;;5020050;28;20323;-73
2023/02/20 11:27:14;;;;;;;21.75;11.00;;;9.80;99.90;;;;;;5011593;28;20303;-74
2023/02/20 11:29:47;;;;;;;19.23;12.30;;;9.80;99.90;;;;;;5010402;28;20204;-72
2023/02/20 11:32:36;;;;;;;17.67;11.23;;;9.80;99.90;;;;;;5012031;28;20241;-73
2023/02/20 11:35:25;;;;;;;16.95;13.98;;;9.80;99.90;;;;;;5011095;28;20752;-73
2023/02/20 11:38:17;;;;;;;19.88;14.63;;;9.70;99.90;;;;;;5005976;28;20201;-72
2023/02/20 11:40:47;;;;;;;21.92;12.73;;;9.80;99.90;;;;;;5016825;28;20230;-73
2023/02/20 11:43:19;;;;;;;23.17;12.10;;;9.90;99.90;;;;;;5022013;28;20616;-73
2023/02/20 11:45:46;;;;;;;20.50;10.90;;;9.90;99.90;;;;;;5015601;28;20221;-73
2023/02/20 11:48:15;;;;;;;19.55;11.00;;;9.80;99.90;;;;;;5023536;28;20246;-72
2023/02/20 11:50:45;;;;;;;16.40;11.75;;;9.80;99.90;;;;;;5015489;28;20222;-72
2023/02/20 11:53:20;;;;;;;14.07;9.80;;;9.90;99.90;;;;;;5012539;28;20201;-74
2023/02/20 11:55:48;;;;;;;14.45;10.65;;;9.90;99.90;;;;;;5012124;28;20223;-72
2023/02/20 11:58:23;;;;;;;13.85;10.57;;;9.90;99.90;;;;;;5012310;28;20238;-73
2023/02/20 12:00:51;;;;;;;16.48;10.63;;;9.90;99.90;;;;;;5011332;28;20618;-73
2023/02/20 12:03:22;;;;;;;13.00;8.52;;;10.00;99.90;;;;;;5012635;28;20244;-72
2023/02/20 12:05:51;;;;;;;15.27;8.82;;;10.00;99.90;;;;;;5012877;28;20242;-72
2023/02/20 12:08:34;;;;;;;15.30;10.07;;;10.00;99.90;;;;;;5012579;28;20276;-72
2023/02/20 12:11:05;;;;;;;18.63;11.52;;;10.10;99.90;;;;;;5011536;28;20214;-72
2023/02/20 12:13:38;;;;;;;14.85;11.63;;;10.10;99.90;;;;;;5012262;28;20295;-72
2023/02/20 12:16:24;;;;;;;15.18;9.70;;;10.00;99.90;;;;;;5009613;28;20221;-72
2023/02/20 12:18:57;;;;;;;16.00;8.70;;;10.10;99.90;;;;;;5017307;28;20251;-72
2023/02/20 12:21:35;;;;;;;14.52;10.45;;;10.10;99.90;;;;;;5011004;28;20206;-73
2023/02/20 12:24:13;;;;;;;10.57;8.38;;;10.10;99.90;;;;;;5011507;28;20339;-73
2023/02/20 12:26:51;;;;;;;17.20;8.35;;;10.10;99.90;;;;;;5015310;28;20221;-73
2023/02/20 12:29:38;;;;;;;21.40;8.93;;;10.10;99.90;;;;;;5012918;28;20244;-74
2023/02/20 12:32:22;;;;;;;14.13;8.23;;;10.10;99.90;;;;;;5011145;28;20234;-73
2023/02/20 12:35:02;;;;;;;18.00;8.82;;;10.10;99.90;;;;;;5016941;28;20275;-73
2023/02/20 12:37:44;;;;;;;14.32;9.80;;;10.10;99.90;;;;;;5001599;28;20236;-73
2023/02/20 12:40:30;;;;;;;17.42;9.38;;;10.10;99.90;;;;;;5011131;28;20209;-74
2023/02/20 12:43:22;;;;;;;12.65;8.45;;;10.10;99.90;;;;;;5012617;28;20249;-73
2023/02/20 12:45:58;;;;;;;14.60;7.78;;;10.10;99.90;;;;;;5011547;28;20230;-72
2023/02/20 12:48:37;;;;;;;13.68;8.13;;;10.20;99.90;;;;;;5011613;28;20239;-75
2023/02/20 12:51:19;;;;;;;14.40;8.70;;;10.20;99.90;;;;;;5012352;28;20198;-72
2023/02/20 12:54:03;;;;;;;11.13;7.80;;;10.20;99.90;;;;;;5011690;28;20288;-73
2023/02/20 12:56:42;;;;;;;12.48;8.30;;;10.30;99.90;;;;;;5004731;28;20282;-74
2023/02/20 12:59:22;;;;;;;10.88;8.70;;;10.20;99.90;;;;;;5005397;28;20357;-73
2023/02/20 13:01:51;;;;;;;12.95;8.30;;;10.20;99.90;;;;;;5006019;28;20210;-73
2023/02/20 13:04:27;;;;;;;14.05;8.32;;;10.30;99.90;;;;;;5011112;28;20220;-71
2023/02/20 13:07:02;;;;;;;14.70;7.95;;;10.20;99.90;;;;;;5010456;28;20222;-73
2023/02/20 13:09:35;;;;;;;17.40;8.73;;;10.30;99.90;;;;;;5010515;28;20229;-72
2023/02/20 13:12:05;;;;;;;13.18;7.35;;;10.40;99.90;;;;;;5012064;28;20291;-72
2023/02/20 13:14:42;;;;;;;16.38;9.60;;;10.30;99.90;;;;;;5010911;28;20246;-73
2023/02/20 13:20:23;;;;;;;14.00;8.18;;;10.40;99.90;;;;;;5009153;28;20685;-73